Главная страница
METAR-TAF:

METAR-TAF

Аэропорты :

Саннефьорд, Норвегия

широта: 59-12N, долгота: 010-16E, высота над уровнем моря: 8 м

Текущие метеонаблюдения

Эта сводка был подготовлена 34 минут назад, в 14:50 UTC
Ветер 10 Узел от северный
Температура 2°C
Влажность 100%
Давление 1021 hPa
Видимость 10 км и более
Рассеянная облачность на высоте 500 фута

METAR: ENTO 151450Z 01010KT 9999 BKN005 02/02 Q1021 TEMPO BKN004

Время: 16:24 (15:24 UTC)

Прогноз

Прогноз действительный с 15-го 12 UTC до 16-го 12 UTC
Ветер 8 Узел от северный
Видимость: 4000 м
Сплошная облачность на высоте 300 фута
дымка
временами
С 15-го 12 UTC до 16-го 05 UTC
Видимость: 7000 м
Отдельные облака на высоте 300 фута
Рассеянная облачность на высоте 700 фута
изменения
С 16-го 05 UTC до 16-го 07 UTC
дождь
временами
С 16-го 06 UTC до 16-го 12 UTC
Видимость: 2000 м
на высоте 200 фута
дождь, снег

TAF: ENTO 1512/1612 01008KT 4000 BR OVC003 TEMPO 1512/1605 7000 SCT003 BKN007 BECMG 1605/1607 RA TEMPO 1606/1612 2000 RASN VV002

Метеонаблюдения и прогнозы для более 4000 аэропортов (сводки METAR и TAF).

Имеющиеся станции представлены на карте желтыми и красными точками.

Чтобы увидеть название станции, наведите на нее мышь.

Затем щелкните, чтобы увидеть метеонаблюдения и метеопрогнозы.

Управление картой: чтобы увеличить масштаб, щелкните зеленые кнопки с черным крестиком; чтобы уменьшить масштаб, щелкните зеленую кнопку с тире; для просмотра соседних карт щелкайте зеленые стрелки.


METAR-TAF: